Terminal Aerodrome Forecast
Issued by NWS Austin/San Antonio, TX

Home | Current Version | Previous Version | Text Only | Print | Product List | Glossary On
Versions: 1 2 3 4 5 6 7 8 9 10 11 12 13 14 15
000
FTUS44 KEWX 241006 AAB
TAFAUS
TAF AMD
KAUS 241006Z 2410/2512 19005KT P6SM SCT015
     FM241100 18005KT P6SM BKN015
     FM241400 18007KT P6SM SCT050 SCT250
     FM242000 15009KT P6SM SCT060 SCT250
     FM251000 16005KT P6SM BKN015=

USA.gov is the U.S. government's official web portal to all federal, state and local government web resources and services.